Abingdon, VA

04:14 AM EST am 21. Dezember 2014 (GMT -0500)
Country Club Estates | Change Station
CLOSE
Current Station
Persönliche Wetterstationen
Location: Abingdon, VA
Höhe: 1990 ft
Wetterstationen in der Umgebung

Höhe 1990 ft 36.69 °N, 81.97 °W | Updated 5 seconds ago

Bedeckt
Bedeckt
35.8 °F
gefühlte 36 °F
N
0.0
Wind Wechselnd Wind aus Nord
Gusts 0.0 mph

Heute
Max. -- | schwach -- °F
--% Regenrisiko
Gestern
Max. -- | schwach -- °F
Precip. -- inch
7:36 AM 5:15 PM
Letztes Viertel, 1% visible
Druck 30.20 inch
Sichtweite 4.0 Meilen
Wolken Teils Wolkig 800 ft
Bedeckt 4100 ft
Windchill 36 °F
Taupunkt 35 °F
Feuchtigkeit 98%
Regen 0.00 inch
Schneehöhe Nicht verfügbar..
UV 0 von 12
Pollen .10 von 12
Luftqualität Nicht verfügbar..
Flu Activity Nicht verfügbar..
METAR KVJI 210855Z AUTO 00000KT 4SM BR SCT008 OVC041 03/03 A3020 RMK AO2 T00340028

More Conditions Fewer Conditions

Druck 30.20 inch
Sichtweite 4.0 Meilen
Wolken Teils Wolkig 800 ft
Bedeckt 4100 ft
Windchill 36 °F
Taupunkt 35 °F
Feuchtigkeit 98%
Regen 0.00 inch
Schneehöhe Nicht verfügbar..
UV 0 von 12
Pollen .10 von 12
Luftqualität Nicht verfügbar..
Flu Activity Nicht verfügbar..
METAR KVJI 210855Z AUTO 00000KT 4SM BR SCT008 OVC041 03/03 A3020 RMK AO2 T00340028

More Conditions Fewer Conditions

10-Day Weather Forecast

Almanac

Astronomie

Dec. 21, 2014 Aufgang Untergang
Genaue Zeit
Bürgerliche Dämmerung
Nautische Dämmerung
Astronomische Dämmerung
Mond
Länge des sichtbaren Lichts
Tageslänge
Tomorrow will be .
, % of the Moon is Illuminated

Heutige Rekorde

State Highs State Lows

Community

WunderPhotos

Upload Photos

1,779,364 Fotos hochgeladen!

WunderBlogs® & News

Nearby

Luftqualität

  Luftqualität LQ Index Schadstoff
Not available.

Schneehöhe

Station Depth Höhe

Erdbebenaktivität

Stadt Distance Mag. Time & Date
Minimum magnitude displayed is 2.5.

küstennahe Wassertemperaturen

Ort Temperatur

Wetterstationen in der Umgebung